Time;durP1;ratioP1;P1;durP2;ratioP2;P2;SDS_P1;SDS_P2;PMS_P1;PMS_P2;Temp;Humidity;BMP_temperature;BMP_pressure;BME280_temperature;BME280_humidity;BME280_pressure;Samples;Min_cycle;Max_cycle;Signal;HPM_P1;HPM_P2
2022/11/22 00:05:12;;;;;;;143.87;64.17;;;-0.50;1.00;;;;;;10066330;29;20262;-85
2022/11/22 00:10:34;;;;;;;148.17;65.87;;;-0.60;1.00;;;;;;10066611;29;20214;-80
2022/11/22 00:16:03;;;;;;;134.23;58.47;;;-0.60;1.00;;;;;;10065741;29;20215;-79
2022/11/22 00:21:24;;;;;;;124.47;56.97;;;-0.50;1.00;;;;;;10089973;29;20202;-82
2022/11/22 00:26:45;;;;;;;127.70;54.23;;;-0.50;1.00;;;;;;10124960;29;20288;-82
2022/11/22 00:32:07;;;;;;;112.17;49.27;;;-0.50;1.00;;;;;;10111846;29;20204;-82
2022/11/22 00:37:28;;;;;;;99.67;47.53;;;-0.50;1.00;;;;;;10079650;29;20516;-87
2022/11/22 00:42:49;;;;;;;107.17;49.00;;;-0.50;1.00;;;;;;10086583;29;20208;-86
2022/11/22 00:48:10;;;;;;;82.43;37.17;;;-0.50;1.00;;;;;;10098302;29;20244;-79
2022/11/22 00:53:32;;;;;;;70.07;32.63;;;-0.50;1.00;;;;;;10097886;29;20197;-77
2022/11/22 00:58:53;;;;;;;73.83;34.90;;;-0.50;1.00;;;;;;10087632;29;20205;-87
2022/11/22 01:04:14;;;;;;;70.20;34.37;;;-0.50;1.00;;;;;;10072390;29;20532;-84
2022/11/22 01:09:36;;;;;;;60.60;30.50;;;-0.60;1.00;;;;;;10072501;29;20284;-79
2022/11/22 01:14:57;;;;;;;51.60;27.43;;;-0.60;1.00;;;;;;10072253;29;20211;-85
2022/11/22 01:20:18;;;;;;;50.70;25.27;;;-0.60;1.00;;;;;;10069109;29;20263;-77
2022/11/22 01:25:43;;;;;;;49.37;26.13;;;-0.50;1.00;;;;;;10070337;29;20298;-78
2022/11/22 01:31:04;;;;;;;54.93;27.43;;;-0.50;1.00;;;;;;10046105;29;20199;-85
2022/11/22 01:36:26;;;;;;;71.43;34.17;;;-0.50;1.00;;;;;;10069896;29;20222;-83
2022/11/22 01:41:47;;;;;;;74.43;33.63;;;-0.50;1.00;;;;;;10084206;29;20508;-87
2022/11/22 01:47:22;;;;;;;60.53;30.03;;;-0.30;1.00;;;;;;10071434;29;20286;-86
2022/11/22 01:52:44;;;;;;;64.47;31.00;;;-0.30;1.00;;;;;;10084172;29;20197;-82
2022/11/22 01:58:06;;;;;;;62.70;30.17;;;-0.30;1.00;;;;;;10057524;29;20526;-86
2022/11/22 02:03:30;;;;;;;56.37;27.80;;;-0.30;1.00;;;;;;10070820;29;20206;-87
2022/11/22 02:09:01;;;;;;;52.33;27.10;;;-0.40;1.00;;;;;;10070607;29;20517;-86
2022/11/22 02:14:25;;;;;;;57.97;29.47;;;-0.40;1.00;;;;;;10070219;29;20214;-86
2022/11/22 02:19:48;;;;;;;56.87;29.97;;;-0.30;1.00;;;;;;10057365;29;20266;-89
2022/11/22 02:25:32;;;;;;;53.10;26.70;;;-0.30;1.00;;;;;;10055922;29;20226;-82
2022/11/22 02:30:52;;;;;;;56.43;28.83;;;-0.30;1.00;;;;;;10059910;29;20491;-88
2022/11/22 02:36:14;;;;;;;53.77;28.43;;;-0.30;1.00;;;;;;10081993;29;20228;-85
2022/11/22 02:41:36;;;;;;;50.43;26.50;;;-0.30;1.00;;;;;;10030602;29;20220;-89
2022/11/22 02:46:57;;;;;;;53.90;28.57;;;-0.30;1.00;;;;;;10043636;29;20312;-88
2022/11/22 02:52:19;;;;;;;52.90;28.60;;;-0.20;1.00;;;;;;10059324;29;20281;-89
2022/11/22 02:57:40;;;;;;;58.50;30.47;;;-0.10;1.00;;;;;;10043532;29;20209;-84
2022/11/22 03:03:01;;;;;;;65.20;28.97;;;-0.10;1.00;;;;;;10058566;29;20211;-85
2022/11/22 03:08:22;;;;;;;77.23;36.50;;;-0.20;1.00;;;;;;10048552;29;20212;-82
2022/11/22 03:13:44;;;;;;;77.63;37.40;;;-0.20;1.00;;;;;;10085390;29;20193;-78
2022/11/22 03:19:05;;;;;;;77.07;38.10;;;-0.20;1.00;;;;;;10042651;29;20247;-86
2022/11/22 03:24:26;;;;;;;63.00;33.23;;;-0.20;1.00;;;;;;10087811;29;20227;-82
2022/11/22 03:29:47;;;;;;;68.90;34.50;;;-0.30;1.00;;;;;;10093018;29;20427;-85
2022/11/22 03:35:09;;;;;;;63.80;34.27;;;-0.30;1.00;;;;;;10104450;29;20266;-85
2022/11/22 03:40:30;;;;;;;62.50;32.60;;;-0.30;1.00;;;;;;10087188;29;20372;-82
2022/11/22 03:45:52;;;;;;;70.90;35.67;;;-0.40;1.00;;;;;;10105277;29;20315;-85
2022/11/22 03:51:13;;;;;;;80.03;37.67;;;-0.40;1.00;;;;;;10092400;29;20227;-83
2022/11/22 03:56:34;;;;;;;81.10;37.53;;;-0.40;1.00;;;;;;10104240;29;20207;-83
2022/11/22 04:01:55;;;;;;;85.97;43.17;;;-0.50;1.00;;;;;;10118066;29;20492;-86
2022/11/22 04:07:17;;;;;;;88.43;42.27;;;-0.40;1.00;;;;;;10104813;29;20291;-86
2022/11/22 04:12:38;;;;;;;93.43;43.70;;;-0.40;1.00;;;;;;10117873;29;20207;-87
2022/11/22 04:17:59;;;;;;;96.80;46.63;;;-0.50;1.00;;;;;;10105037;29;20243;-88
2022/11/22 04:23:22;;;;;;;107.00;47.47;;;-0.40;1.00;;;;;;10083294;29;20208;-88
2022/11/22 04:28:43;;;;;;;108.00;50.23;;;-0.40;1.00;;;;;;10078992;29;20238;-83
2022/11/22 04:34:24;;;;;;;114.00;52.87;;;-0.50;1.00;;;;;;10079070;29;20224;-86
2022/11/22 04:39:45;;;;;;;115.00;54.30;;;-0.60;1.00;;;;;;10078805;29;20209;-84
2022/11/22 04:45:08;;;;;;;120.97;52.90;;;-0.50;1.00;;;;;;10066252;29;20231;-86
2022/11/22 04:56:11;;;;;;;135.43;55.40;;;-0.40;1.00;;;;;;10079222;29;20332;-83
2022/11/22 05:01:32;;;;;;;122.73;53.07;;;-0.50;1.00;;;;;;10065896;29;20202;-83
2022/11/22 05:06:55;;;;;;;131.73;54.10;;;-0.50;1.00;;;;;;10068762;29;20282;-79
2022/11/22 05:12:16;;;;;;;135.23;57.17;;;-0.50;1.00;;;;;;10072484;29;20214;-83
2022/11/22 05:17:38;;;;;;;131.43;57.77;;;-0.50;1.00;;;;;;10059242;29;20277;-86
2022/11/22 05:28:39;;;;;;;158.20;61.37;;;-0.50;8.80;;;;;;10110527;29;20245;-87
2022/11/22 05:34:00;;;;;;;158.57;63.00;;;-0.60;43.50;;;;;;10097969;29;20209;-85
2022/11/22 05:39:21;;;;;;;153.23;60.40;;;-0.60;62.90;;;;;;10059333;29;20211;-79
2022/11/22 05:44:43;;;;;;;155.33;58.80;;;-0.50;56.40;;;;;;10073469;29;20244;-79
2022/11/22 05:50:04;;;;;;;174.83;64.97;;;-0.40;47.70;;;;;;10071881;29;20269;-81
2022/11/22 05:55:25;;;;;;;172.00;66.33;;;-0.50;67.90;;;;;;10085789;29;20445;-85
2022/11/22 06:00:47;;;;;;;195.77;78.03;;;-0.40;94.20;;;;;;10091823;29;20204;-77
2022/11/22 06:06:09;;;;;;;167.57;65.90;;;-0.40;87.90;;;;;;10093793;29;20216;-81
2022/11/22 06:11:30;;;;;;;173.50;61.87;;;-0.40;97.60;;;;;;10112365;29;20218;-80
2022/11/22 06:16:51;;;;;;;171.80;64.80;;;-0.40;83.90;;;;;;10076663;29;20272;-78
2022/11/22 06:22:13;;;;;;;174.70;66.97;;;-0.40;99.90;;;;;;10096072;29;20204;-78
2022/11/22 06:27:34;;;;;;;206.87;69.77;;;-0.40;99.90;;;;;;10108807;29;20315;-83
2022/11/22 06:32:56;;;;;;;161.17;63.93;;;-0.40;99.90;;;;;;10109260;29;20211;-83
2022/11/22 06:38:17;;;;;;;176.13;64.80;;;-0.30;99.90;;;;;;10068795;29;20212;-83
2022/11/22 06:43:39;;;;;;;186.27;67.17;;;-0.30;99.90;;;;;;10056689;29;20283;-81
2022/11/22 06:49:03;;;;;;;182.23;67.43;;;-0.30;99.90;;;;;;10068567;29;20248;-82
2022/11/22 06:54:25;;;;;;;192.90;69.50;;;-0.20;99.90;;;;;;10069931;29;20208;-82
2022/11/22 06:59:46;;;;;;;180.20;69.03;;;-0.20;99.90;;;;;;10082321;29;20482;-88
2022/11/22 07:05:07;;;;;;;190.97;67.20;;;-0.20;90.00;;;;;;10081423;29;20219;-86
2022/11/22 07:10:44;;;;;;;190.20;66.43;;;-0.20;99.90;;;;;;10083433;29;20212;-84
2022/11/22 07:16:07;;;;;;;199.60;70.53;;;-0.20;94.60;;;;;;10067255;29;20209;-88
2022/11/22 07:21:28;;;;;;;209.37;71.93;;;-0.20;99.60;;;;;;10074026;29;20206;-88
2022/11/22 07:26:49;;;;;;;221.40;71.60;;;-0.20;98.00;;;;;;10119069;29;20220;-85
2022/11/22 07:32:10;;;;;;;211.53;75.07;;;-0.10;99.90;;;;;;10104818;29;20195;-80
2022/11/22 07:37:32;;;;;;;236.60;79.83;;;-0.10;90.40;;;;;;10085590;29;20277;-86
2022/11/22 07:42:53;;;;;;;211.17;74.10;;;-0.20;99.90;;;;;;10054473;29;20208;-80
2022/11/22 07:48:17;;;;;;;193.67;68.30;;;-0.20;99.90;;;;;;10068429;29;20483;-80
2022/11/22 07:53:39;;;;;;;205.97;69.03;;;-0.10;99.90;;;;;;10082608;29;20197;-89
2022/11/22 07:59:00;;;;;;;207.13;75.73;;;-0.10;90.50;;;;;;10093897;29;20212;-85
2022/11/22 08:04:22;;;;;;;191.03;67.83;;;-0.10;73.90;;;;;;10085709;29;20498;-84
2022/11/22 08:09:43;;;;;;;190.13;67.77;;;-0.10;46.40;;;;;;10069484;29;20283;-87
2022/11/22 08:15:05;;;;;;;190.07;68.70;;;-0.20;91.70;;;;;;10080868;29;20194;-85
2022/11/22 08:20:26;;;;;;;194.13;69.93;;;-0.10;96.90;;;;;;10058565;29;20245;-86
2022/11/22 08:25:47;;;;;;;169.33;63.13;;;-0.10;83.80;;;;;;10035228;29;20241;-80
2022/11/22 08:31:12;;;;;;;178.40;64.37;;;-0.20;58.20;;;;;;10062379;29;20212;-81
2022/11/22 08:36:33;;;;;;;207.97;77.97;;;-0.10;92.00;;;;;;10053627;29;20212;-81
2022/11/22 08:41:54;;;;;;;205.30;74.03;;;-0.20;86.00;;;;;;10080311;29;20199;-82
2022/11/22 08:47:16;;;;;;;179.87;68.23;;;-0.10;77.20;;;;;;10082074;29;20544;-87
2022/11/22 08:52:37;;;;;;;185.00;68.13;;;-0.20;70.40;;;;;;10039449;29;20202;-80
2022/11/22 08:57:59;;;;;;;142.73;54.77;;;-0.20;66.60;;;;;;10030866;29;20523;-81
2022/11/22 09:03:20;;;;;;;111.97;49.03;;;-0.10;46.40;;;;;;10030446;29;20201;-83
2022/11/22 09:08:41;;;;;;;94.47;39.80;;;-0.10;15.80;;;;;;10029979;29;20242;-81
2022/11/22 09:14:03;;;;;;;87.97;38.40;;;-0.10;1.00;;;;;;10016932;29;20391;-83
2022/11/22 09:19:24;;;;;;;77.97;32.93;;;-0.20;1.00;;;;;;10017260;29;20265;-81
2022/11/22 09:24:45;;;;;;;77.33;33.27;;;-0.20;1.00;;;;;;10047732;29;20240;-81
2022/11/22 09:30:07;;;;;;;80.83;33.53;;;-0.20;1.00;;;;;;10067111;29;20200;-81
2022/11/22 09:35:28;;;;;;;83.97;35.30;;;-0.10;1.00;;;;;;10067710;29;20272;-83
2022/11/22 09:40:49;;;;;;;82.03;34.70;;;0.00;1.00;;;;;;10067354;29;20208;-82
2022/11/22 09:46:24;;;;;;;80.33;35.20;;;-0.10;1.00;;;;;;10067518;29;20600;-81
2022/11/22 09:51:57;;;;;;;78.50;33.83;;;-0.20;1.00;;;;;;10066482;29;20234;-82
2022/11/22 09:57:26;;;;;;;94.43;38.17;;;-0.10;1.00;;;;;;10053599;29;20521;-85
2022/11/22 10:03:10;;;;;;;92.00;40.37;;;0.00;1.00;;;;;;10079316;29;20211;-82
2022/11/22 10:09:06;;;;;;;100.10;40.50;;;0.00;1.00;;;;;;10067464;29;20548;-84
2022/11/22 10:14:46;;;;;;;90.80;39.07;;;0.00;1.00;;;;;;10057770;29;20228;-81
2022/11/22 10:20:24;;;;;;;96.60;41.87;;;0.00;1.00;;;;;;10014937;29;20257;-88
2022/11/22 10:26:03;;;;;;;100.63;42.73;;;0.10;1.00;;;;;;10060499;29;20291;-81
2022/11/22 10:31:49;;;;;;;92.43;40.87;;;0.10;1.00;;;;;;10057812;29;20702;-88
2022/11/22 10:37:31;;;;;;;94.13;39.70;;;-0.20;1.00;;;;;;10056104;29;20193;-82
2022/11/22 10:43:18;;;;;;;82.43;35.10;;;-0.20;1.00;;;;;;10083735;29;20200;-85
2022/11/22 10:48:57;;;;;;;84.33;35.53;;;-0.30;1.00;;;;;;10064810;29;20231;-81
2022/11/22 10:55:03;;;;;;;89.57;39.27;;;-0.30;1.00;;;;;;10045250;29;20214;-85
2022/11/22 11:00:26;;;;;;;99.57;42.40;;;-0.30;1.00;;;;;;10036297;29;20244;-81
2022/11/22 11:06:02;;;;;;;94.90;41.03;;;-0.20;1.00;;;;;;10065270;29;20235;-86
2022/11/22 11:11:44;;;;;;;102.13;44.93;;;-0.20;1.00;;;;;;10053836;29;20280;-84
2022/11/22 11:17:06;;;;;;;99.27;41.40;;;-0.20;1.00;;;;;;10052252;29;20236;-84
2022/11/22 11:22:31;;;;;;;100.30;42.37;;;-0.20;1.00;;;;;;10060768;29;20226;-89
2022/11/22 11:28:36;;;;;;;101.20;42.63;;;-0.30;1.00;;;;;;10061148;29;20736;-90
2022/11/22 11:34:15;;;;;;;115.60;49.20;;;-0.30;1.00;;;;;;10076427;29;20236;-84
2022/11/22 11:39:36;;;;;;;141.93;56.10;;;-0.40;1.00;;;;;;10063491;29;20214;-86
2022/11/22 11:45:30;;;;;;;127.10;51.73;;;-0.40;1.00;;;;;;10077217;29;20207;-88
2022/11/22 11:50:51;;;;;;;118.77;50.20;;;-0.20;1.00;;;;;;10050013;29;20216;-82
2022/11/22 11:56:31;;;;;;;124.67;51.13;;;-0.20;1.00;;;;;;10076332;29;20291;-90
2022/11/22 12:02:08;;;;;;;123.60;49.20;;;-0.20;1.00;;;;;;10025830;29;20461;-82
2022/11/22 12:07:32;;;;;;;131.67;53.70;;;-0.20;1.00;;;;;;10053242;29;20233;-84
2022/11/22 12:13:15;;;;;;;127.43;50.00;;;-0.20;1.00;;;;;;10076300;29;20242;-79
2022/11/22 12:18:40;;;;;;;155.90;56.27;;;-0.20;1.00;;;;;;10058373;29;20647;-81
2022/11/22 12:24:49;;;;;;;151.50;60.07;;;-0.20;1.00;;;;;;10061729;29;20211;-80
2022/11/22 12:30:23;;;;;;;144.00;59.47;;;-0.20;1.00;;;;;;10080826;29;20294;-86
2022/11/22 12:35:45;;;;;;;129.50;54.03;;;-0.20;1.00;;;;;;10068032;29;20409;-81
2022/11/22 12:41:12;;;;;;;137.73;56.80;;;-0.20;1.00;;;;;;10071393;29;20247;-80
2022/11/22 12:46:49;;;;;;;135.73;58.03;;;0.00;1.00;;;;;;10085444;29;20262;-89
2022/11/22 12:52:24;;;;;;;128.97;56.67;;;0.00;1.00;;;;;;10071194;29;20228;-86
2022/11/22 12:57:55;;;;;;;118.87;50.90;;;0.00;1.00;;;;;;10049511;29;20232;-85
2022/11/22 13:03:29;;;;;;;119.10;50.77;;;0.10;1.00;;;;;;10034886;29;20220;-80
2022/11/22 13:09:01;;;;;;;109.20;48.07;;;0.00;1.00;;;;;;10054698;29;20236;-81
2022/11/22 13:14:34;;;;;;;111.13;49.57;;;-0.10;1.00;;;;;;10075958;29;20194;-85
2022/11/22 13:20:00;;;;;;;103.77;45.47;;;-0.10;1.00;;;;;;10040172;29;20275;-80
2022/11/22 13:25:53;;;;;;;102.67;43.80;;;-0.10;99.90;;;;;;10055186;29;20219;-83
2022/11/22 13:31:18;;;;;;;105.70;48.47;;;-0.10;99.90;;;;;;10054683;29;20212;-92
2022/11/22 13:36:40;;;;;;;97.63;42.67;;;-0.20;99.90;;;;;;10067045;29;20206;-83
2022/11/22 13:42:06;;;;;;;99.60;42.83;;;-0.20;99.90;;;;;;10068726;29;20264;-85
2022/11/22 13:47:43;;;;;;;94.10;42.37;;;-0.30;1.00;;;;;;10043585;29;20454;-88
2022/11/22 13:53:19;;;;;;;85.13;39.07;;;-0.20;99.90;;;;;;10080050;29;20214;-81
2022/11/22 13:58:46;;;;;;;82.83;36.87;;;-0.20;99.90;;;;;;10069331;29;20204;-85
2022/11/22 14:04:18;;;;;;;88.37;39.13;;;-0.20;99.90;;;;;;10072983;29;20299;-81
2022/11/22 14:09:52;;;;;;;92.77;36.60;;;-0.30;1.00;;;;;;10060757;29;20246;-86
2022/11/22 14:15:48;;;;;;;80.93;35.83;;;-0.30;1.00;;;;;;10080587;29;20217;-81
2022/11/22 14:21:37;;;;;;;81.47;34.93;;;-0.30;1.00;;;;;;10070081;29;20207;-85
2022/11/22 14:27:10;;;;;;;77.67;35.53;;;-0.30;1.00;;;;;;10063874;29;20227;-85
2022/11/22 14:33:00;;;;;;;72.20;34.33;;;-0.30;1.00;;;;;;10074916;29;20218;-85
2022/11/22 14:38:21;;;;;;;76.97;35.20;;;-0.20;1.00;;;;;;10048881;29;20203;-81
2022/11/22 14:43:51;;;;;;;70.40;33.20;;;-0.20;1.00;;;;;;10071837;29;20427;-88
2022/11/22 14:49:21;;;;;;;71.07;32.07;;;-0.20;1.00;;;;;;10051900;29;20236;-83
2022/11/22 14:54:47;;;;;;;72.90;35.17;;;-0.10;1.00;;;;;;10089927;29;20206;-80
2022/11/22 15:00:23;;;;;;;66.87;32.67;;;-0.20;1.00;;;;;;10069504;29;20407;-80
2022/11/22 15:05:50;;;;;;;70.00;36.17;;;-0.10;1.00;;;;;;10045198;29;20493;-80
2022/11/22 15:11:39;;;;;;;74.03;37.93;;;-0.10;1.00;;;;;;10079868;29;20437;-82
2022/11/22 15:17:02;;;;;;;75.67;39.03;;;-0.10;1.00;;;;;;10059905;29;20451;-81
2022/11/22 15:22:29;;;;;;;76.63;38.37;;;0.00;1.00;;;;;;10051259;29;20264;-80
2022/11/22 15:28:13;;;;;;;71.77;36.33;;;-0.10;1.00;;;;;;10046709;29;20228;-85
2022/11/22 15:33:55;;;;;;;165.10;63.87;;;0.00;1.00;;;;;;10050032;29;20204;-87
2022/11/22 15:39:37;;;;;;;77.40;40.07;;;0.00;1.00;;;;;;10064667;29;20215;-79
2022/11/22 15:45:21;;;;;;;74.37;38.57;;;0.00;1.00;;;;;;10091322;29;20234;-85
2022/11/22 15:51:08;;;;;;;72.90;35.37;;;-0.10;1.00;;;;;;10056287;29;20201;-78
2022/11/22 15:56:58;;;;;;;71.43;39.40;;;-0.10;1.00;;;;;;10044248;29;20204;-79
2022/11/22 16:02:32;;;;;;;85.97;42.47;;;-0.20;1.00;;;;;;10060035;29;20203;-81
2022/11/22 16:07:56;;;;;;;65.93;35.57;;;-0.10;1.00;;;;;;10083802;29;20236;-81
2022/11/22 16:13:20;;;;;;;74.97;36.53;;;-0.10;1.00;;;;;;10064914;29;20502;-80
2022/11/22 16:18:42;;;;;;;71.90;34.70;;;0.00;1.00;;;;;;10051904;29;20240;-80
2022/11/22 16:24:16;;;;;;;68.47;35.27;;;0.00;34.20;;;;;;10052291;29;20278;-81
2022/11/22 16:29:37;;;;;;;70.90;36.03;;;0.10;45.90;;;;;;10064728;29;20430;-89
2022/11/22 16:34:59;;;;;;;89.27;41.27;;;0.10;60.70;;;;;;10055317;29;20205;-91
2022/11/22 16:40:41;;;;;;;78.10;39.40;;;0.20;59.70;;;;;;10026686;29;20249;-82
2022/11/22 16:46:03;;;;;;;75.43;39.33;;;0.30;52.10;;;;;;10043228;29;20238;-86
2022/11/22 16:51:29;;;;;;;84.80;39.87;;;0.30;95.60;;;;;;10053837;29;20206;-85
2022/11/22 16:56:50;;;;;;;75.47;35.30;;;0.40;93.50;;;;;;10040836;29;20206;-81
2022/11/22 17:02:16;;;;;;;86.00;41.20;;;0.50;72.50;;;;;;10069753;29;20198;-84
2022/11/22 17:07:37;;;;;;;88.47;40.73;;;0.50;99.90;;;;;;10075295;29;20244;-84
2022/11/22 17:12:58;;;;;;;88.00;44.03;;;0.50;99.90;;;;;;10074272;29;20288;-88
2022/11/22 17:18:20;;;;;;;111.30;48.10;;;0.50;99.90;;;;;;10086278;29;20478;-84
2022/11/22 17:23:42;;;;;;;98.03;45.37;;;0.60;99.90;;;;;;10059539;29;20208;-82
2022/11/22 17:29:03;;;;;;;105.50;46.87;;;0.60;99.90;;;;;;10056046;29;20308;-82
2022/11/22 17:34:24;;;;;;;108.10;45.53;;;0.70;99.90;;;;;;10109849;29;20201;-88
2022/11/22 17:39:50;;;;;;;109.10;46.03;;;0.70;99.90;;;;;;10110976;29;20213;-80
2022/11/22 17:45:11;;;;;;;105.67;45.27;;;0.70;99.90;;;;;;10124047;29;20204;-84
2022/11/22 17:50:32;;;;;;;97.07;43.23;;;0.60;99.90;;;;;;10113387;29;20264;-85
2022/11/22 17:55:53;;;;;;;102.77;42.33;;;0.70;99.90;;;;;;10126573;29;20275;-86
2022/11/22 18:01:29;;;;;;;94.93;42.70;;;0.70;99.90;;;;;;10090281;29;20407;-87
2022/11/22 18:06:50;;;;;;;107.07;42.23;;;0.70;99.90;;;;;;10072605;29;20312;-80
2022/11/22 18:12:12;;;;;;;104.80;44.77;;;0.70;99.90;;;;;;10085124;29;20514;-82
2022/11/22 18:17:35;;;;;;;102.13;43.30;;;0.70;99.90;;;;;;10071419;29;20450;-85
2022/11/22 18:22:56;;;;;;;103.57;42.03;;;0.70;99.90;;;;;;10084621;29;20243;-86
2022/11/22 18:28:18;;;;;;;114.47;42.53;;;0.70;99.90;;;;;;10061126;29;20476;-83
2022/11/22 18:33:39;;;;;;;110.10;43.93;;;0.70;99.90;;;;;;10103487;29;20228;-82
2022/11/22 18:39:00;;;;;;;117.83;44.13;;;0.70;99.90;;;;;;10069221;29;20216;-85
2022/11/22 18:44:21;;;;;;;107.67;41.40;;;0.70;99.90;;;;;;10069064;29;20280;-83
2022/11/22 18:49:42;;;;;;;104.23;42.13;;;0.70;99.90;;;;;;10069037;29;20315;-84
2022/11/22 18:55:05;;;;;;;116.87;43.67;;;0.60;99.90;;;;;;10068359;29;20285;-81
2022/11/22 19:00:26;;;;;;;104.57;39.40;;;0.60;99.90;;;;;;10081877;29;20195;-83
2022/11/22 19:05:47;;;;;;;108.73;40.37;;;0.70;99.90;;;;;;10055075;29;20212;-82
2022/11/22 19:11:09;;;;;;;115.57;42.37;;;0.70;99.90;;;;;;10081342;29;20200;-83
2022/11/22 19:16:30;;;;;;;100.60;37.87;;;0.70;99.90;;;;;;10068119;29;20251;-87
2022/11/22 19:21:52;;;;;;;113.60;40.70;;;0.70;99.90;;;;;;10083375;29;20204;-80
2022/11/22 19:27:13;;;;;;;116.77;42.23;;;0.70;99.90;;;;;;10053957;29;20235;-82
2022/11/22 19:32:34;;;;;;;120.00;43.13;;;0.80;99.90;;;;;;10114194;29;20290;-83
2022/11/22 19:37:56;;;;;;;123.27;43.47;;;0.80;99.90;;;;;;10088959;29;20245;-82
2022/11/22 19:43:17;;;;;;;103.00;39.47;;;0.80;99.90;;;;;;10029803;29;20362;-87
2022/11/22 19:48:39;;;;;;;103.57;38.93;;;0.80;99.90;;;;;;10043922;29;20226;-82
2022/11/22 19:54:03;;;;;;;101.43;41.03;;;0.80;99.90;;;;;;10017378;29;20207;-89
2022/11/22 19:59:25;;;;;;;115.20;42.23;;;0.70;99.90;;;;;;10029137;29;20280;-85
2022/11/22 20:04:46;;;;;;;98.57;38.50;;;0.80;99.90;;;;;;10028546;29;20203;-80
2022/11/22 20:10:07;;;;;;;97.83;38.20;;;0.70;99.90;;;;;;10041737;29;20242;-79
2022/11/22 20:15:28;;;;;;;97.87;35.00;;;0.70;99.90;;;;;;10065909;29;20289;-83
2022/11/22 20:20:49;;;;;;;88.57;37.60;;;0.90;99.90;;;;;;10080893;29;20237;-78
2022/11/22 20:26:13;;;;;;;87.47;36.57;;;0.90;99.90;;;;;;10067162;29;20507;-78
2022/11/22 20:31:37;;;;;;;88.70;37.53;;;0.90;99.90;;;;;;10072611;29;20473;-78
2022/11/22 20:37:01;;;;;;;83.53;36.97;;;0.90;99.90;;;;;;10121144;29;20251;-85
2022/11/22 20:42:22;;;;;;;79.07;33.53;;;0.90;99.90;;;;;;10126235;29;20207;-82
2022/11/22 20:47:58;;;;;;;84.73;35.30;;;0.80;99.90;;;;;;10112146;29;20549;-80
2022/11/22 20:53:19;;;;;;;85.40;34.07;;;0.80;99.90;;;;;;10112898;29;20208;-84
2022/11/22 20:58:41;;;;;;;92.57;36.77;;;0.80;99.90;;;;;;10111956;29;20279;-78
2022/11/22 21:04:02;;;;;;;100.30;41.23;;;0.80;99.90;;;;;;10124988;29;20201;-79
2022/11/22 21:09:23;;;;;;;85.43;34.07;;;0.90;99.90;;;;;;10111143;29;20501;-82
2022/11/22 21:14:44;;;;;;;92.23;35.33;;;0.90;99.90;;;;;;10081130;29;20407;-80
2022/11/22 21:20:07;;;;;;;86.20;35.20;;;0.80;99.90;;;;;;10085653;29;20240;-79
2022/11/22 21:25:28;;;;;;;86.90;36.03;;;0.80;99.90;;;;;;10087725;29;20198;-81
2022/11/22 21:30:57;;;;;;;80.67;34.53;;;0.80;99.90;;;;;;10093438;29;20236;-83
2022/11/22 21:36:18;;;;;;;73.37;31.30;;;0.80;99.90;;;;;;10123748;29;20212;-79
2022/11/22 21:41:39;;;;;;;71.03;31.43;;;0.80;99.90;;;;;;10111211;29;20230;-78
2022/11/22 21:47:02;;;;;;;82.77;35.10;;;0.80;99.90;;;;;;10122357;29;20514;-80
2022/11/22 21:52:23;;;;;;;92.20;33.90;;;0.80;99.90;;;;;;10097663;29;20562;-86
2022/11/22 21:57:44;;;;;;;83.03;35.13;;;0.80;99.90;;;;;;10098449;29;20223;-84
2022/11/22 22:03:05;;;;;;;88.93;34.50;;;0.80;99.90;;;;;;10124268;29;20435;-81
2022/11/22 22:08:28;;;;;;;78.67;34.13;;;0.80;99.90;;;;;;10111060;29;20238;-81
2022/11/22 22:13:53;;;;;;;81.03;33.83;;;0.80;99.90;;;;;;10099154;29;20280;-84
2022/11/22 22:19:14;;;;;;;77.00;33.27;;;0.80;99.90;;;;;;10031883;29;20319;-83
2022/11/22 22:24:35;;;;;;;81.30;35.37;;;0.70;99.90;;;;;;10038132;29;20200;-80
2022/11/22 22:29:58;;;;;;;86.77;35.10;;;0.70;99.90;;;;;;10049866;29;20308;-86
2022/11/22 22:35:19;;;;;;;83.70;35.67;;;0.70;99.90;;;;;;10098166;29;20211;-84
2022/11/22 22:40:40;;;;;;;87.47;35.70;;;0.70;99.90;;;;;;10050633;29;20257;-79
2022/11/22 22:46:07;;;;;;;87.73;35.57;;;0.70;99.90;;;;;;10043744;29;20206;-80
2022/11/22 22:51:29;;;;;;;86.60;35.53;;;0.70;99.90;;;;;;10043821;29;20551;-84
2022/11/22 22:56:52;;;;;;;80.90;34.70;;;0.70;99.90;;;;;;10018107;29;20220;-84
2022/11/22 23:02:13;;;;;;;77.10;34.13;;;0.70;99.90;;;;;;10030067;29;20209;-79
2022/11/22 23:07:34;;;;;;;89.00;36.80;;;0.70;99.90;;;;;;10038303;29;20248;-79
2022/11/22 23:12:58;;;;;;;86.17;35.97;;;0.70;99.90;;;;;;10053228;29;20270;-85
2022/11/22 23:18:19;;;;;;;87.50;37.53;;;0.60;99.90;;;;;;10051308;29;20245;-86
2022/11/22 23:23:39;;;;;;;84.47;34.57;;;0.70;99.90;;;;;;10068030;29;20223;-88
2022/11/22 23:29:01;;;;;;;86.57;34.40;;;0.70;99.90;;;;;;10049572;29;20252;-83
2022/11/22 23:34:22;;;;;;;88.17;37.57;;;0.70;99.90;;;;;;10116429;29;20245;-85
2022/11/22 23:39:43;;;;;;;94.07;39.70;;;0.80;99.90;;;;;;10049250;29;20301;-83
2022/11/22 23:45:05;;;;;;;87.17;37.13;;;0.80;99.90;;;;;;10029157;29;20281;-88
2022/11/22 23:50:26;;;;;;;84.30;37.43;;;0.80;99.90;;;;;;10028616;29;20550;-81
2022/11/22 23:55:47;;;;;;;87.67;36.20;;;0.80;99.90;;;;;;10029212;29;20229;-85
